Time;durP1;ratioP1;P1;durP2;ratioP2;P2;SDS_P1;SDS_P2;PMS_P1;PMS_P2;Temp;Humidity;BMP_temperature;BMP_pressure;BME280_temperature;BME280_humidity;BME280_pressure;Samples;Min_cycle;Max_cycle;Signal;HPM_P1;HPM_P2
2023/05/09 00:01:53;;;;;;;22.98;15.93;;;;;;;;;;5091741;28;20449;-64
2023/05/09 00:04:19;;;;;;;19.53;14.77;;;;;;;;;;5079558;28;20020;-63
2023/05/09 00:06:44;;;;;;;24.63;15.55;;;;;;;;;;5091074;28;20340;-63
2023/05/09 00:09:10;;;;;;;19.20;15.63;;;;;;;;;;5088673;28;20027;-63
2023/05/09 00:11:35;;;;;;;22.92;15.52;;;;;;;;;;5092319;28;20059;-64
2023/05/09 00:14:01;;;;;;;18.13;14.97;;;;;;;;;;5090569;28;20051;-63
2023/05/09 00:16:27;;;;;;;20.35;15.10;;;;;;;;;;5091366;28;20855;-63
2023/05/09 00:18:52;;;;;;;17.27;14.23;;;;;;;;;;5090872;28;20032;-63
2023/05/09 00:21:18;;;;;;;19.08;14.43;;;;;;;;;;5091984;28;20440;-63
2023/05/09 00:23:43;;;;;;;22.52;16.42;;;;;;;;;;5091991;28;20094;-63
2023/05/09 00:26:09;;;;;;;18.27;14.63;;;;;;;;;;5091637;28;20394;-63
2023/05/09 00:28:34;;;;;;;24.38;15.68;;;;;;;;;;5091578;28;20016;-64
2023/05/09 00:30:59;;;;;;;19.52;15.77;;;;;;;;;;5092242;28;20053;-63
2023/05/09 00:33:25;;;;;;;22.75;16.80;;;;;;;;;;5090905;28;20103;-64
2023/05/09 00:35:51;;;;;;;19.45;15.57;;;;;;;;;;5088057;28;20036;-63
2023/05/09 00:38:17;;;;;;;19.48;15.10;;;;;;;;;;5081486;28;20059;-63
2023/05/09 00:40:42;;;;;;;19.90;16.48;;;;;;;;;;5091575;28;20074;-63
2023/05/09 00:43:07;;;;;;;21.10;16.50;;;;;;;;;;5090792;28;20015;-63
2023/05/09 00:45:33;;;;;;;18.42;15.75;;;;;;;;;;5091125;28;20016;-63
2023/05/09 00:47:58;;;;;;;25.20;16.73;;;;;;;;;;5091052;28;20027;-63
2023/05/09 00:50:23;;;;;;;19.65;15.57;;;;;;;;;;5090945;28;20115;-63
2023/05/09 00:52:49;;;;;;;19.30;14.85;;;;;;;;;;5091985;28;20107;-63
2023/05/09 00:55:15;;;;;;;23.98;16.27;;;;;;;;;;5091082;28;20478;-63
2023/05/09 00:57:40;;;;;;;18.98;14.35;;;;;;;;;;5082060;28;20024;-63
2023/05/09 01:00:05;;;;;;;24.67;15.10;;;;;;;;;;5090217;28;20077;-63
2023/05/09 01:02:31;;;;;;;21.77;15.93;;;;;;;;;;5091195;28;20282;-63
2023/05/09 01:04:57;;;;;;;17.67;15.50;;;;;;;;;;5091018;28;20048;-63
2023/05/09 01:07:25;;;;;;;19.40;15.45;;;;;;;;;;5083325;28;20060;-63
2023/05/09 01:10:01;;;;;;;17.92;15.20;;;;;;;;;;5090796;28;20031;-63
2023/05/09 01:12:40;;;;;;;20.02;15.00;;;;;;;;;;5089588;28;20038;-63
2023/05/09 01:15:17;;;;;;;21.48;16.05;;;;;;;;;;5090599;28;20016;-63
2023/05/09 01:17:42;;;;;;;18.10;15.15;;;;;;;;;;5078938;28;20050;-63
2023/05/09 01:20:11;;;;;;;19.40;15.85;;;;;;;;;;5090438;28;20479;-63
2023/05/09 01:22:39;;;;;;;19.27;15.75;;;;;;;;;;5089470;28;20462;-63
2023/05/09 01:25:10;;;;;;;18.15;15.48;;;;;;;;;;5091147;28;20024;-63
2023/05/09 01:27:44;;;;;;;20.63;15.68;;;;;;;;;;5090948;28;20054;-63
2023/05/09 01:30:10;;;;;;;20.60;15.95;;;;;;;;;;5090040;28;20056;-63
2023/05/09 01:32:36;;;;;;;22.73;15.95;;;;;;;;;;5090159;28;20044;-63
2023/05/09 01:35:03;;;;;;;17.98;16.10;;;;;;;;;;5090205;28;20020;-63
2023/05/09 01:37:29;;;;;;;21.73;15.52;;;;;;;;;;5090756;28;20133;-63
2023/05/09 01:39:56;;;;;;;20.90;15.73;;;;;;;;;;5090093;28;20040;-64
2023/05/09 01:42:21;;;;;;;17.67;15.57;;;;;;;;;;5083607;28;20376;-63
2023/05/09 01:44:48;;;;;;;23.52;16.30;;;;;;;;;;5090076;28;20039;-64
2023/05/09 01:47:15;;;;;;;18.25;15.75;;;;;;;;;;5090112;28;20031;-63
2023/05/09 01:49:41;;;;;;;17.52;15.27;;;;;;;;;;5090105;28;20012;-63
2023/05/09 01:52:08;;;;;;;18.63;16.20;;;;;;;;;;5089664;28;20378;-63
2023/05/09 01:54:34;;;;;;;22.75;16.08;;;;;;;;;;5077873;28;20512;-63
2023/05/09 01:57:01;;;;;;;20.95;16.17;;;;;;;;;;5089948;28;20024;-63
2023/05/09 01:59:27;;;;;;;19.52;15.15;;;;;;;;;;5090409;28;20096;-63
2023/05/09 02:01:54;;;;;;;21.08;16.30;;;;;;;;;;5090206;28;20024;-63
2023/05/09 02:04:19;;;;;;;21.00;16.05;;;;;;;;;;5090110;28;20024;-63
2023/05/09 02:06:49;;;;;;;18.63;15.77;;;;;;;;;;5090670;28;20027;-63
2023/05/09 02:09:15;;;;;;;22.30;16.48;;;;;;;;;;5090737;28;20066;-63
2023/05/09 02:11:40;;;;;;;21.25;16.77;;;;;;;;;;5089446;28;20044;-64
2023/05/09 02:14:06;;;;;;;25.75;16.50;;;;;;;;;;5089292;28;20020;-63
2023/05/09 02:16:31;;;;;;;24.00;17.55;;;;;;;;;;5090039;28;20103;-63
2023/05/09 02:18:56;;;;;;;17.98;15.40;;;;;;;;;;5090009;28;20069;-63
2023/05/09 02:21:21;;;;;;;20.73;15.50;;;;;;;;;;5085536;28;20494;-63
2023/05/09 02:23:47;;;;;;;19.98;15.50;;;;;;;;;;5093043;28;20019;-63
2023/05/09 02:26:12;;;;;;;20.80;15.55;;;;;;;;;;5093297;28;20031;-63
2023/05/09 02:28:38;;;;;;;20.55;15.52;;;;;;;;;;5092733;28;20475;-63
2023/05/09 02:31:05;;;;;;;19.45;16.90;;;;;;;;;;5093181;28;20089;-63
2023/05/09 02:33:33;;;;;;;20.73;16.10;;;;;;;;;;5093017;28;20110;-63
2023/05/09 02:35:58;;;;;;;18.33;16.38;;;;;;;;;;5093537;28;20024;-63
2023/05/09 02:38:26;;;;;;;19.35;16.08;;;;;;;;;;5092967;28;20031;-63
2023/05/09 02:40:51;;;;;;;26.10;17.48;;;;;;;;;;5092747;28;20032;-63
2023/05/09 02:43:16;;;;;;;24.77;16.70;;;;;;;;;;5080397;28;20032;-63
2023/05/09 02:45:42;;;;;;;19.10;16.83;;;;;;;;;;5093528;28;20420;-63
2023/05/09 02:48:07;;;;;;;20.55;16.27;;;;;;;;;;5093104;28;20043;-63
2023/05/09 02:50:33;;;;;;;24.60;17.05;;;;;;;;;;5093271;28;20130;-63
2023/05/09 02:52:58;;;;;;;20.30;17.15;;;;;;;;;;5092961;28;20111;-64
2023/05/09 02:55:23;;;;;;;28.38;18.10;;;;;;;;;;5093459;28;20106;-63
2023/05/09 02:57:49;;;;;;;19.73;17.15;;;;;;;;;;5092488;28;20050;-63
2023/05/09 03:00:14;;;;;;;20.42;18.17;;;;;;;;;;5091409;28;20128;-64
2023/05/09 03:02:39;;;;;;;21.73;18.20;;;;;;;;;;5090046;28;20023;-64
2023/05/09 03:05:05;;;;;;;29.85;17.85;;;;;;;;;;5088657;28;20581;-63
2023/05/09 03:07:31;;;;;;;22.67;17.65;;;;;;;;;;5092801;28;20031;-64
2023/05/09 03:09:56;;;;;;;25.60;18.77;;;;;;;;;;5091267;28;20039;-63
2023/05/09 03:12:21;;;;;;;24.35;18.80;;;;;;;;;;5093157;28;20042;-64
2023/05/09 03:14:46;;;;;;;24.70;19.67;;;;;;;;;;5091450;28;20374;-63
2023/05/09 03:17:16;;;;;;;23.60;19.05;;;;;;;;;;5092627;28;20052;-63
2023/05/09 03:19:41;;;;;;;23.88;19.85;;;;;;;;;;5093323;28;20011;-63
2023/05/09 03:22:06;;;;;;;25.30;18.95;;;;;;;;;;5091846;28;20390;-63
2023/05/09 03:24:31;;;;;;;25.23;19.90;;;;;;;;;;5092723;28;20023;-63
2023/05/09 03:26:57;;;;;;;23.85;19.65;;;;;;;;;;5092625;28;20035;-63
2023/05/09 03:29:22;;;;;;;22.52;19.98;;;;;;;;;;5091892;28;20479;-63
2023/05/09 03:31:47;;;;;;;27.60;19.23;;;;;;;;;;5092357;28;20039;-63
2023/05/09 03:34:13;;;;;;;22.83;20.42;;;;;;;;;;5081923;28;20119;-63
2023/05/09 03:36:42;;;;;;;23.50;20.65;;;;;;;;;;5093031;28;20012;-64
2023/05/09 03:39:08;;;;;;;31.02;22.20;;;;;;;;;;5092861;28;20168;-63
2023/05/09 03:41:35;;;;;;;26.55;21.35;;;;;;;;;;5092555;28;20374;-63
2023/05/09 03:44:00;;;;;;;27.50;20.20;;;;;;;;;;5091834;28;20019;-63
2023/05/09 03:46:25;;;;;;;27.23;22.08;;;;;;;;;;5092133;28;20016;-63
2023/05/09 03:48:51;;;;;;;23.48;21.02;;;;;;;;;;5089562;28;20022;-63
2023/05/09 03:51:16;;;;;;;26.13;22.55;;;;;;;;;;5082330;28;20028;-64
2023/05/09 03:53:41;;;;;;;25.40;22.15;;;;;;;;;;5091811;28;20462;-64
2023/05/09 03:56:07;;;;;;;29.88;23.17;;;;;;;;;;5091884;28;20073;-64
2023/05/09 03:58:32;;;;;;;28.35;22.23;;;;;;;;;;5089974;28;20032;-64
2023/05/09 04:00:58;;;;;;;31.27;22.15;;;;;;;;;;5081889;28;20039;-63
2023/05/09 04:03:23;;;;;;;28.08;23.23;;;;;;;;;;5091237;28;20031;-63
2023/05/09 04:05:48;;;;;;;28.38;22.05;;;;;;;;;;5091507;28;20039;-64
2023/05/09 04:08:14;;;;;;;24.65;21.65;;;;;;;;;;5092335;28;20433;-64
2023/05/09 04:10:39;;;;;;;26.17;22.45;;;;;;;;;;5091768;28;20020;-63
2023/05/09 04:13:04;;;;;;;27.80;20.75;;;;;;;;;;5091369;28;20047;-63
2023/05/09 04:15:29;;;;;;;24.90;20.42;;;;;;;;;;5079094;28;20041;-63
2023/05/09 04:17:55;;;;;;;24.58;20.08;;;;;;;;;;5092101;28;20437;-63
2023/05/09 04:20:20;;;;;;;25.45;20.67;;;;;;;;;;5091533;28;20016;-62
2023/05/09 04:22:46;;;;;;;25.83;19.88;;;;;;;;;;5091341;28;20043;-63
2023/05/09 04:25:13;;;;;;;33.58;19.77;;;;;;;;;;5091396;28;20035;-63
2023/05/09 04:27:38;;;;;;;22.23;19.75;;;;;;;;;;5091769;28;20481;-64
2023/05/09 04:30:04;;;;;;;21.42;18.73;;;;;;;;;;5090334;28;20130;-63
2023/05/09 04:32:29;;;;;;;22.48;18.23;;;;;;;;;;5089058;28;20016;-63
2023/05/09 04:34:55;;;;;;;21.30;17.02;;;;;;;;;;5087063;28;20099;-63
2023/05/09 04:37:20;;;;;;;18.95;16.80;;;;;;;;;;5079960;28;20028;-63
2023/05/09 04:39:45;;;;;;;20.92;17.27;;;;;;;;;;5085022;28;20020;-63
2023/05/09 04:42:10;;;;;;;18.80;16.80;;;;;;;;;;5085847;28;20043;-63
2023/05/09 04:44:36;;;;;;;29.05;16.75;;;;;;;;;;5088939;28;20024;-63
2023/05/09 04:47:01;;;;;;;20.75;14.50;;;;;;;;;;5085413;28;20029;-63
2023/05/09 04:49:26;;;;;;;19.42;15.55;;;;;;;;;;5087424;28;20103;-63
2023/05/09 04:51:51;;;;;;;17.65;14.65;;;;;;;;;;5085127;28;20390;-64
2023/05/09 04:54:17;;;;;;;18.95;14.27;;;;;;;;;;5091499;28;20123;-64
2023/05/09 04:56:42;;;;;;;17.42;14.95;;;;;;;;;;5091323;28;20505;-63
2023/05/09 04:59:07;;;;;;;20.50;14.00;;;;;;;;;;5091745;28;20073;-63
2023/05/09 05:01:32;;;;;;;16.90;13.82;;;;;;;;;;5091334;28;20028;-63
2023/05/09 05:03:58;;;;;;;19.77;12.55;;;;;;;;;;5091317;28;20405;-63
2023/05/09 05:06:23;;;;;;;13.77;12.25;;;;;;;;;;5091194;28;20131;-63
2023/05/09 05:08:48;;;;;;;16.67;12.32;;;;;;;;;;5085867;28;20012;-63
2023/05/09 05:11:14;;;;;;;14.77;11.50;;;;;;;;;;5091029;28;20028;-63
2023/05/09 05:13:39;;;;;;;13.50;11.50;;;;;;;;;;5090334;28;20012;-63
2023/05/09 05:16:04;;;;;;;12.82;11.25;;;;;;;;;;5079838;28;20037;-63
2023/05/09 05:18:29;;;;;;;15.57;10.60;;;;;;;;;;5088068;28;20028;-63
2023/05/09 05:20:55;;;;;;;17.27;11.13;;;;;;;;;;5089954;28;20024;-63
2023/05/09 05:23:20;;;;;;;12.63;10.82;;;;;;;;;;5090850;28;20028;-63
2023/05/09 05:25:45;;;;;;;13.13;11.73;;;;;;;;;;5090985;28;20027;-63
2023/05/09 05:28:10;;;;;;;13.98;12.43;;;;;;;;;;5090055;28;20040;-63
2023/05/09 05:30:36;;;;;;;16.67;12.27;;;;;;;;;;5090213;28;20482;-63
2023/05/09 05:33:01;;;;;;;18.02;12.77;;;;;;;;;;5089297;28;20047;-62
2023/05/09 05:35:27;;;;;;;18.65;12.88;;;;;;;;;;5091233;28;20055;-63
2023/05/09 05:37:53;;;;;;;22.55;12.38;;;;;;;;;;5079280;28;20055;-63
2023/05/09 05:40:18;;;;;;;18.65;13.43;;;;;;;;;;5090694;28;20066;-63
2023/05/09 05:42:45;;;;;;;17.55;13.55;;;;;;;;;;5090228;28;20022;-63
2023/05/09 05:45:10;;;;;;;17.27;13.88;;;;;;;;;;5091073;28;20052;-63
2023/05/09 05:47:36;;;;;;;14.63;12.57;;;;;;;;;;5089638;28;20517;-63
2023/05/09 05:50:02;;;;;;;14.82;12.30;;;;;;;;;;5089978;28;20020;-63
2023/05/09 05:52:27;;;;;;;15.00;11.93;;;;;;;;;;5091564;28;20043;-63
2023/05/09 05:54:53;;;;;;;15.43;12.60;;;;;;;;;;5093063;28;20023;-63
2023/05/09 05:57:18;;;;;;;12.93;10.57;;;;;;;;;;5093540;28;20023;-63
2023/05/09 05:59:45;;;;;;;13.52;10.48;;;;;;;;;;5093748;28;20035;-63
2023/05/09 06:02:10;;;;;;;12.55;9.50;;;;;;;;;;5092406;28;20024;-63
2023/05/09 06:04:36;;;;;;;16.50;9.13;;;;;;;;;;5094195;28;20027;-63
2023/05/09 06:07:01;;;;;;;12.20;8.23;;;;;;;;;;5093336;28;20397;-63
2023/05/09 06:09:26;;;;;;;13.25;8.45;;;;;;;;;;5094101;28;20023;-63
2023/05/09 06:11:52;;;;;;;11.63;8.90;;;;;;;;;;5093670;28;20032;-63
2023/05/09 06:14:19;;;;;;;8.40;7.38;;;;;;;;;;5094040;28;20779;-63
2023/05/09 06:16:44;;;;;;;9.82;6.63;;;;;;;;;;5092122;28;20283;-63
2023/05/09 06:19:09;;;;;;;9.45;6.80;;;;;;;;;;5093556;28;20036;-63
2023/05/09 06:21:34;;;;;;;8.70;6.30;;;;;;;;;;5093442;28;20027;-63
2023/05/09 06:24:01;;;;;;;7.97;5.55;;;;;;;;;;5093224;28;20278;-63
2023/05/09 06:26:27;;;;;;;12.93;6.22;;;;;;;;;;5093221;28;20119;-63
2023/05/09 06:28:52;;;;;;;7.53;5.72;;;;;;;;;;5091911;28;20098;-62
2023/05/09 06:31:17;;;;;;;8.25;5.72;;;;;;;;;;5093274;28;20377;-63
2023/05/09 06:33:43;;;;;;;9.50;5.60;;;;;;;;;;5092832;28;20074;-64
2023/05/09 06:36:08;;;;;;;7.07;5.17;;;;;;;;;;5086993;28;20389;-64
2023/05/09 06:38:34;;;;;;;10.73;5.25;;;;;;;;;;5093535;28;20258;-64
2023/05/09 06:40:59;;;;;;;12.40;5.78;;;;;;;;;;5093187;28;20024;-62
2023/05/09 06:43:25;;;;;;;11.27;5.10;;;;;;;;;;5092016;28;20366;-62
2023/05/09 06:45:50;;;;;;;5.90;4.50;;;;;;;;;;5093000;28;20028;-64
2023/05/09 06:48:15;;;;;;;6.53;4.50;;;;;;;;;;5092822;28;20354;-64
2023/05/09 06:50:41;;;;;;;7.65;5.05;;;;;;;;;;5087402;28;20027;-64
2023/05/09 06:53:06;;;;;;;7.25;5.10;;;;;;;;;;5091774;28;20074;-63
2023/05/09 06:55:31;;;;;;;6.63;5.03;;;;;;;;;;5092207;28;20032;-63
2023/05/09 06:57:56;;;;;;;7.88;4.78;;;;;;;;;;5092274;28;20038;-61
2023/05/09 07:00:22;;;;;;;12.60;5.07;;;;;;;;;;5093082;28;20028;-63
2023/05/09 07:02:47;;;;;;;7.80;5.13;;;;;;;;;;5091639;28;20020;-61
2023/05/09 07:05:12;;;;;;;5.53;3.97;;;;;;;;;;5092115;28;20048;-61
2023/05/09 07:07:38;;;;;;;7.03;4.93;;;;;;;;;;5092565;28;20285;-63
2023/05/09 07:10:03;;;;;;;6.97;5.03;;;;;;;;;;5093480;28;20073;-63
2023/05/09 07:12:31;;;;;;;9.30;5.20;;;;;;;;;;5092320;28;20451;-63
2023/05/09 07:14:57;;;;;;;7.65;4.72;;;;;;;;;;5092700;28;20099;-61
2023/05/09 07:17:23;;;;;;;6.82;4.82;;;;;;;;;;5088512;28;20100;-61
2023/05/09 07:19:48;;;;;;;6.18;4.80;;;;;;;;;;5092847;28;20102;-61
2023/05/09 07:22:13;;;;;;;11.38;5.80;;;;;;;;;;5092626;28;20514;-61
2023/05/09 07:24:39;;;;;;;7.03;5.40;;;;;;;;;;5092642;28;20077;-63
2023/05/09 07:27:04;;;;;;;6.70;5.28;;;;;;;;;;5092201;28;20278;-63
2023/05/09 07:29:30;;;;;;;8.40;4.57;;;;;;;;;;5092914;28;20027;-63
2023/05/09 07:31:55;;;;;;;10.40;5.72;;;;;;;;;;5092099;28;20478;-63
2023/05/09 07:34:22;;;;;;;11.93;4.80;;;;;;;;;;5093166;28;20019;-63
2023/05/09 07:36:47;;;;;;;7.18;4.50;;;;;;;;;;5092691;28;20066;-64
2023/05/09 07:39:12;;;;;;;7.50;5.35;;;;;;;;;;5092052;28;20028;-63
2023/05/09 07:41:37;;;;;;;10.93;4.90;;;;;;;;;;5088760;28;20359;-63
2023/05/09 07:44:03;;;;;;;7.90;4.90;;;;;;;;;;5091563;28;20274;-63
2023/05/09 07:46:28;;;;;;;7.22;5.30;;;;;;;;;;5091885;28;20343;-63
2023/05/09 07:48:53;;;;;;;8.40;5.68;;;;;;;;;;5091673;28;20272;-63
2023/05/09 07:51:18;;;;;;;7.25;5.13;;;;;;;;;;5091401;28;20024;-63
2023/05/09 07:53:44;;;;;;;9.50;5.32;;;;;;;;;;5092214;28;20150;-62
2023/05/09 07:56:09;;;;;;;9.77;5.60;;;;;;;;;;5091847;28;20028;-63
2023/05/09 07:58:34;;;;;;;7.28;5.10;;;;;;;;;;5085644;28;20278;-63
2023/05/09 08:00:59;;;;;;;9.23;5.57;;;;;;;;;;5090668;28;20024;-64
2023/05/09 08:03:25;;;;;;;16.45;5.93;;;;;;;;;;5066521;28;20269;-63
2023/05/09 08:05:56;;;;;;;10.60;5.97;;;;;;;;;;5084578;28;20070;-64
2023/05/09 08:08:22;;;;;;;8.57;5.97;;;;;;;;;;5089042;28;20077;-63
2023/05/09 08:10:47;;;;;;;12.80;7.40;;;;;;;;;;5091999;28;20024;-64
2023/05/09 08:13:12;;;;;;;17.88;6.10;;;;;;;;;;5092089;28;20031;-63
2023/05/09 08:15:38;;;;;;;9.85;5.82;;;;;;;;;;5090132;28;20498;-64
2023/05/09 08:18:03;;;;;;;13.35;7.07;;;;;;;;;;5091795;28;20362;-63
2023/05/09 08:20:30;;;;;;;9.10;5.95;;;;;;;;;;5090880;28;20122;-63
2023/05/09 08:22:55;;;;;;;9.02;6.97;;;;;;;;;;5087764;28;20031;-63
2023/05/09 08:25:21;;;;;;;17.88;6.35;;;;;;;;;;5091389;28;20016;-63
2023/05/09 08:27:46;;;;;;;10.38;5.72;;;;;;;;;;5091166;28;20043;-63
2023/05/09 08:30:12;;;;;;;13.45;5.13;;;;;;;;;;5091643;28;20016;-63
2023/05/09 08:32:37;;;;;;;11.65;6.65;;;;;;;;;;5091897;28;20404;-64
2023/05/09 08:35:02;;;;;;;15.25;6.28;;;;;;;;;;5092124;28;20109;-63
2023/05/09 08:37:27;;;;;;;9.07;4.97;;;;;;;;;;5091823;28;20016;-64
2023/05/09 08:39:53;;;;;;;9.38;4.68;;;;;;;;;;5091005;28;20048;-63
2023/05/09 08:42:21;;;;;;;14.60;5.47;;;;;;;;;;5092049;28;20012;-63
2023/05/09 08:44:47;;;;;;;9.90;5.28;;;;;;;;;;5091642;28;20420;-63
2023/05/09 08:47:12;;;;;;;6.95;3.90;;;;;;;;;;5091220;28;20060;-64
2023/05/09 08:49:38;;;;;;;11.27;5.32;;;;;;;;;;5090715;28;20027;-63
2023/05/09 08:52:03;;;;;;;7.55;5.28;;;;;;;;;;5087144;28;20382;-63
2023/05/09 08:54:28;;;;;;;6.38;4.47;;;;;;;;;;5090677;28;20016;-63
2023/05/09 08:56:54;;;;;;;14.10;5.45;;;;;;;;;;5090779;28;20375;-63
2023/05/09 08:59:19;;;;;;;8.50;5.75;;;;;;;;;;5090321;28;20512;-63
2023/05/09 09:01:45;;;;;;;9.75;6.13;;;;;;;;;;5053840;28;20028;-63
2023/05/09 09:04:13;;;;;;;11.13;5.45;;;;;;;;;;5043969;28;20048;-64
2023/05/09 09:06:38;;;;;;;9.40;5.38;;;;;;;;;;5044608;28;20055;-63
2023/05/09 09:09:05;;;;;;;13.88;6.25;;;;;;;;;;5064916;28;20115;-63
2023/05/09 09:11:30;;;;;;;12.07;6.25;;;;;;;;;;5073942;28;20061;-64
2023/05/09 09:13:59;;;;;;;14.25;5.97;;;;;;;;;;5059751;28;20024;-63
2023/05/09 09:16:25;;;;;;;7.68;4.63;;;;;;;;;;5057463;28;20297;-63
2023/05/09 09:18:53;;;;;;;6.20;4.22;;;;;;;;;;5056923;28;20542;-63
2023/05/09 09:21:19;;;;;;;6.95;4.75;;;;;;;;;;5067786;28;20118;-62
2023/05/09 09:23:46;;;;;;;5.53;3.70;;;;;;;;;;5086910;28;20123;-63
2023/05/09 09:26:12;;;;;;;6.38;4.45;;;;;;;;;;5089940;28;20035;-63
2023/05/09 09:28:37;;;;;;;13.05;4.00;;;;;;;;;;5090841;28;20024;-64
2023/05/09 09:31:17;;;;;;;5.20;4.32;;;;;;;;;;5090624;28;20032;-63
2023/05/09 09:33:42;;;;;;;6.35;4.03;;;;;;;;;;5090388;28;20042;-63
2023/05/09 09:36:08;;;;;;;7.38;4.68;;;;;;;;;;5083254;28;20024;-62
2023/05/09 09:38:38;;;;;;;6.15;4.75;;;;;;;;;;5090386;28;20478;-63
2023/05/09 09:41:04;;;;;;;10.18;5.95;;;;;;;;;;5088654;28;20032;-63
2023/05/09 09:43:30;;;;;;;20.17;5.63;;;;;;;;;;5090507;28;20023;-64
2023/05/09 09:45:56;;;;;;;7.50;5.25;;;;;;;;;;5046278;28;20127;-63
2023/05/09 09:48:35;;;;;;;7.40;5.85;;;;;;;;;;5060375;28;20089;-63
2023/05/09 09:51:18;;;;;;;8.45;5.78;;;;;;;;;;5067191;28;20020;-63
2023/05/09 09:53:44;;;;;;;19.63;5.60;;;;;;;;;;5043089;28;20074;-63
2023/05/09 09:56:09;;;;;;;7.50;5.93;;;;;;;;;;5082335;28;20048;-63
2023/05/09 09:58:35;;;;;;;6.60;5.70;;;;;;;;;;5085012;28;20031;-62
2023/05/09 10:01:07;;;;;;;8.88;5.80;;;;;;;;;;5090045;28;20028;-63
2023/05/09 10:03:40;;;;;;;8.15;5.53;;;;;;;;;;5043407;28;20154;-63
2023/05/09 10:06:09;;;;;;;7.85;5.85;;;;;;;;;;5042101;28;20979;-62
2023/05/09 10:08:35;;;;;;;6.53;5.25;;;;;;;;;;5041180;28;20885;-63
2023/05/09 10:11:00;;;;;;;6.35;5.03;;;;;;;;;;5042293;28;20090;-63
2023/05/09 10:13:27;;;;;;;6.45;5.35;;;;;;;;;;5036520;28;20021;-62
2023/05/09 10:15:53;;;;;;;7.30;5.00;;;;;;;;;;5039725;28;20874;-63
2023/05/09 10:18:23;;;;;;;7.45;4.95;;;;;;;;;;5043607;28;20033;-62
2023/05/09 10:20:49;;;;;;;7.00;5.38;;;;;;;;;;5034566;28;20875;-62
2023/05/09 10:23:14;;;;;;;6.72;5.22;;;;;;;;;;5041937;28;20058;-62
2023/05/09 10:25:47;;;;;;;5.97;5.03;;;;;;;;;;5054251;28;20047;-62
2023/05/09 10:28:17;;;;;;;7.07;5.10;;;;;;;;;;5016921;28;20025;-63
2023/05/09 10:30:45;;;;;;;7.88;5.40;;;;;;;;;;5043122;28;20127;-62
2023/05/09 10:33:11;;;;;;;6.22;4.80;;;;;;;;;;5041971;28;20025;-63
2023/05/09 10:35:39;;;;;;;7.82;5.60;;;;;;;;;;5043374;28;20024;-63
2023/05/09 10:38:05;;;;;;;9.13;5.18;;;;;;;;;;5046680;28;20131;-63
2023/05/09 10:40:31;;;;;;;6.15;5.05;;;;;;;;;;5068353;28;20036;-63
2023/05/09 10:42:57;;;;;;;6.53;5.68;;;;;;;;;;5093685;28;20020;-63
2023/05/09 10:45:22;;;;;;;8.07;5.72;;;;;;;;;;5093546;28;20031;-62
2023/05/09 10:47:48;;;;;;;9.13;5.35;;;;;;;;;;5092258;28;20032;-63
2023/05/09 10:50:15;;;;;;;6.97;6.00;;;;;;;;;;5071771;28;20028;-63
2023/05/09 10:52:59;;;;;;;6.65;5.65;;;;;;;;;;5055950;28;20132;-62
2023/05/09 10:55:34;;;;;;;7.63;6.78;;;;;;;;;;5045643;28;20056;-62
2023/05/09 10:58:16;;;;;;;6.88;5.53;;;;;;;;;;5044795;28;20951;-62
2023/05/09 11:00:41;;;;;;;7.82;6.88;;;;;;;;;;5068030;28;20097;-63
2023/05/09 11:03:07;;;;;;;9.48;6.82;;;;;;;;;;5092023;28;20123;-62
2023/05/09 11:05:37;;;;;;;7.43;6.32;;;;;;;;;;5091416;28;20024;-62
2023/05/09 11:08:18;;;;;;;9.40;6.28;;;;;;;;;;5088837;28;20032;-62
2023/05/09 11:10:44;;;;;;;9.02;6.32;;;;;;;;;;5077786;28;20024;-62
2023/05/09 11:13:09;;;;;;;13.43;7.22;;;;;;;;;;5091641;28;20501;-63
2023/05/09 11:15:35;;;;;;;12.50;6.65;;;;;;;;;;5063246;28;20024;-63
2023/05/09 11:18:08;;;;;;;7.38;6.45;;;;;;;;;;5043541;28;20490;-64
2023/05/09 11:20:36;;;;;;;17.58;7.40;;;;;;;;;;5040609;28;20127;-63
2023/05/09 11:23:05;;;;;;;11.25;6.43;;;;;;;;;;5048462;28;20777;-63
2023/05/09 11:25:31;;;;;;;6.63;5.63;;;;;;;;;;5044255;28;20448;-63
2023/05/09 11:28:00;;;;;;;9.23;5.45;;;;;;;;;;5037846;28;20021;-63
2023/05/09 11:30:34;;;;;;;10.32;6.28;;;;;;;;;;5040930;28;20028;-64
2023/05/09 11:32:59;;;;;;;7.90;7.03;;;;;;;;;;5042719;28;20027;-63
2023/05/09 11:35:27;;;;;;;9.98;7.03;;;;;;;;;;5045241;28;20031;-63
2023/05/09 11:38:05;;;;;;;9.07;7.40;;;;;;;;;;5046211;28;20131;-63
2023/05/09 11:40:31;;;;;;;10.68;6.88;;;;;;;;;;5047541;28;21048;-63
2023/05/09 11:42:57;;;;;;;8.75;6.55;;;;;;;;;;5043920;28;20004;-64
2023/05/09 11:45:23;;;;;;;11.88;6.57;;;;;;;;;;5046851;28;20893;-64
2023/05/09 11:47:49;;;;;;;10.20;5.75;;;;;;;;;;5047967;28;20024;-64
2023/05/09 11:50:15;;;;;;;7.03;5.40;;;;;;;;;;5046796;28;20024;-64
2023/05/09 11:52:41;;;;;;;8.75;6.03;;;;;;;;;;5036859;28;20028;-64
2023/05/09 11:55:07;;;;;;;8.18;5.93;;;;;;;;;;5047258;28;20031;-63
2023/05/09 11:57:34;;;;;;;8.90;6.40;;;;;;;;;;5039044;28;20035;-63
2023/05/09 12:00:00;;;;;;;10.23;6.20;;;;;;;;;;5033282;28;20020;-63
2023/05/09 12:02:25;;;;;;;7.43;6.07;;;;;;;;;;5032115;28;20050;-63
2023/05/09 12:04:50;;;;;;;12.35;6.68;;;;;;;;;;5040836;28;20028;-63
2023/05/09 12:07:17;;;;;;;8.25;6.65;;;;;;;;;;5046012;28;20026;-63
2023/05/09 12:09:42;;;;;;;7.47;6.78;;;;;;;;;;5043253;28;20845;-63
2023/05/09 12:12:10;;;;;;;9.85;7.32;;;;;;;;;;5043940;28;20027;-63
2023/05/09 12:14:35;;;;;;;9.27;7.72;;;;;;;;;;5047735;28;20036;-64
2023/05/09 12:17:01;;;;;;;9.68;8.32;;;;;;;;;;5044099;28;20198;-63
2023/05/09 12:19:26;;;;;;;8.43;7.10;;;;;;;;;;5042578;28;20051;-63
2023/05/09 12:21:59;;;;;;;9.73;7.45;;;;;;;;;;5046329;28;20024;-63
2023/05/09 12:24:28;;;;;;;9.63;7.55;;;;;;;;;;5044358;28;20562;-64
2023/05/09 12:26:53;;;;;;;8.15;7.35;;;;;;;;;;5044523;28;20089;-63
2023/05/09 12:29:19;;;;;;;12.63;7.28;;;;;;;;;;5033661;28;20024;-64
2023/05/09 12:31:45;;;;;;;11.48;7.50;;;;;;;;;;5025143;28;20035;-64
2023/05/09 12:34:11;;;;;;;10.13;5.57;;;;;;;;;;5045612;28;20028;-63
2023/05/09 12:36:36;;;;;;;8.73;5.53;;;;;;;;;;5044743;28;20024;-63
2023/05/09 12:39:02;;;;;;;6.25;5.43;;;;;;;;;;5044125;28;20099;-63
2023/05/09 12:41:28;;;;;;;12.25;5.47;;;;;;;;;;5044369;28;20063;-64
2023/05/09 12:43:54;;;;;;;7.82;3.70;;;;;;;;;;5042816;28;20024;-63
2023/05/09 12:46:20;;;;;;;13.85;4.78;;;;;;;;;;5019239;28;20063;-64
2023/05/09 12:48:47;;;;;;;10.20;4.43;;;;;;;;;;5040695;28;20059;-64
2023/05/09 12:51:16;;;;;;;8.88;3.95;;;;;;;;;;5042870;28;20077;-64
2023/05/09 12:53:41;;;;;;;7.05;3.58;;;;;;;;;;5046047;28;20081;-64
2023/05/09 12:56:17;;;;;;;5.35;3.33;;;;;;;;;;5046116;28;20923;-64
2023/05/09 12:58:50;;;;;;;8.13;3.67;;;;;;;;;;5042883;28;20024;-64
2023/05/09 13:01:15;;;;;;;5.97;3.38;;;;;;;;;;5043260;28;20032;-64
2023/05/09 13:03:41;;;;;;;4.72;3.15;;;;;;;;;;5043828;28;20854;-64
2023/05/09 13:06:11;;;;;;;7.93;4.38;;;;;;;;;;5045964;28;20040;-64
2023/05/09 13:08:37;;;;;;;7.25;2.85;;;;;;;;;;5044459;28;20024;-63
2023/05/09 13:11:02;;;;;;;6.28;3.00;;;;;;;;;;5042644;28;20012;-63
2023/05/09 13:13:27;;;;;;;10.68;3.08;;;;;;;;;;5043756;28;20917;-64
2023/05/09 13:15:53;;;;;;;5.32;3.30;;;;;;;;;;5044234;28;20858;-64
2023/05/09 13:18:19;;;;;;;5.97;3.80;;;;;;;;;;5044540;28;20842;-64
2023/05/09 13:20:44;;;;;;;4.68;2.83;;;;;;;;;;5042293;28;20029;-64
2023/05/09 13:23:10;;;;;;;6.63;3.28;;;;;;;;;;5038575;28;20055;-64
2023/05/09 13:25:35;;;;;;;4.35;2.42;;;;;;;;;;5040212;28;20971;-64
2023/05/09 13:28:00;;;;;;;4.63;2.70;;;;;;;;;;5042060;28;20599;-63
2023/05/09 13:30:26;;;;;;;7.03;3.10;;;;;;;;;;5042725;28;20028;-64
2023/05/09 13:32:51;;;;;;;4.38;2.78;;;;;;;;;;5040610;28;20062;-64
2023/05/09 13:35:16;;;;;;;5.70;2.75;;;;;;;;;;5030660;28;20790;-64
2023/05/09 13:37:42;;;;;;;4.70;3.00;;;;;;;;;;5042757;28;20024;-64
2023/05/09 13:40:08;;;;;;;8.05;3.40;;;;;;;;;;5032557;28;20012;-64
2023/05/09 13:42:33;;;;;;;8.57;3.63;;;;;;;;;;5043680;28;20889;-63
2023/05/09 13:44:59;;;;;;;6.53;3.30;;;;;;;;;;5043194;28;20862;-63
2023/05/09 13:47:24;;;;;;;7.90;3.10;;;;;;;;;;5033710;28;20029;-64
2023/05/09 13:49:51;;;;;;;8.63;3.67;;;;;;;;;;5031589;28;20881;-64
2023/05/09 13:52:16;;;;;;;6.38;4.10;;;;;;;;;;5042185;28;20031;-65
2023/05/09 13:54:41;;;;;;;8.05;3.65;;;;;;;;;;5042414;28;20127;-64
2023/05/09 13:57:07;;;;;;;5.22;3.03;;;;;;;;;;5045222;28;20020;-64
2023/05/09 13:59:32;;;;;;;6.63;3.80;;;;;;;;;;5046514;28;20077;-64
2023/05/09 14:01:58;;;;;;;6.38;3.53;;;;;;;;;;5045834;28;20294;-63
2023/05/09 14:04:27;;;;;;;5.22;3.55;;;;;;;;;;5044629;28;20032;-64
2023/05/09 14:06:53;;;;;;;8.38;3.85;;;;;;;;;;5030058;28;20869;-64
2023/05/09 14:09:18;;;;;;;7.03;3.50;;;;;;;;;;5041604;28;20031;-63
2023/05/09 14:11:43;;;;;;;13.25;4.47;;;;;;;;;;5041702;28;20047;-62
2023/05/09 14:14:09;;;;;;;8.50;3.83;;;;;;;;;;5042576;28;20030;-62
2023/05/09 14:16:34;;;;;;;6.32;3.55;;;;;;;;;;5049103;28;20881;-61
2023/05/09 14:19:00;;;;;;;7.18;3.88;;;;;;;;;;5045947;28;20056;-61
2023/05/09 14:21:26;;;;;;;11.02;4.35;;;;;;;;;;5048258;28;20878;-63
2023/05/09 14:23:51;;;;;;;7.68;4.60;;;;;;;;;;5049548;28;20881;-63
2023/05/09 14:26:16;;;;;;;7.45;4.43;;;;;;;;;;5041360;28;20036;-63